createdAt,value
2023-06-19T00:00:37.960Z,13.45
2023-06-19T00:03:06.312Z,13.05
2023-06-19T00:05:34.365Z,13.00
2023-06-19T00:08:04.851Z,12.02
2023-06-19T00:10:32.848Z,11.73
2023-06-19T00:13:00.851Z,11.93
2023-06-19T00:15:30.615Z,11.13
2023-06-19T00:17:59.940Z,11.88
2023-06-19T00:20:27.979Z,11.70
2023-06-19T00:22:56.129Z,10.70
2023-06-19T00:25:24.031Z,9.90
2023-06-19T00:27:52.015Z,10.23
2023-06-19T00:30:20.046Z,11.55
2023-06-19T00:32:51.653Z,10.88
2023-06-19T00:35:20.197Z,9.75
2023-06-19T00:37:48.205Z,9.80
2023-06-19T00:40:26.876Z,10.55
2023-06-19T00:42:54.852Z,10.88
2023-06-19T00:45:23.026Z,10.90
2023-06-19T00:47:52.575Z,12.40
2023-06-19T00:50:21.290Z,13.10
2023-06-19T00:52:49.910Z,11.48
2023-06-19T00:55:18.988Z,11.40
2023-06-19T00:57:47.661Z,10.98
2023-06-19T01:00:16.325Z,11.40
2023-06-19T01:02:44.355Z,10.50
2023-06-19T01:05:13.816Z,11.55
2023-06-19T01:07:48.364Z,11.98
2023-06-19T01:10:20.966Z,11.55
2023-06-19T01:12:54.854Z,12.55
2023-06-19T01:15:24.619Z,11.90
2023-06-19T01:17:53.408Z,12.00
2023-06-19T01:20:23.031Z,12.40
2023-06-19T01:22:52.519Z,11.45
2023-06-19T01:25:20.455Z,11.82
2023-06-19T01:27:48.444Z,11.65
2023-06-19T01:30:16.577Z,11.30
2023-06-19T01:32:53.279Z,12.30
2023-06-19T01:35:24.088Z,11.27
2023-06-19T01:37:55.008Z,10.40
2023-06-19T01:40:27.136Z,11.07
2023-06-19T01:42:56.213Z,11.10
2023-06-19T01:45:24.315Z,10.50
2023-06-19T01:47:52.356Z,11.65
2023-06-19T01:50:21.049Z,11.40
2023-06-19T01:52:49.053Z,9.90
2023-06-19T01:55:18.709Z,11.30
2023-06-19T01:57:47.240Z,10.75
2023-06-19T02:00:15.619Z,10.60
2023-06-19T02:02:43.809Z,10.40
2023-06-19T02:05:11.978Z,10.40
2023-06-19T02:07:39.855Z,11.02
2023-06-19T02:10:09.155Z,11.10
2023-06-19T02:12:38.626Z,10.63
2023-06-19T02:15:07.568Z,11.02
2023-06-19T02:17:35.513Z,9.82
2023-06-19T02:20:03.524Z,9.75
2023-06-19T02:22:31.614Z,11.43
2023-06-19T02:24:59.540Z,10.88
2023-06-19T02:27:27.586Z,13.02
2023-06-19T02:29:56.969Z,9.75
2023-06-19T02:32:25.363Z,10.90
2023-06-19T02:34:53.354Z,11.45
2023-06-19T02:37:21.425Z,10.35
2023-06-19T02:39:49.458Z,10.55
2023-06-19T02:42:17.427Z,11.43
2023-06-19T02:44:45.458Z,11.27
2023-06-19T02:47:14.790Z,11.13
2023-06-19T02:49:42.745Z,12.98
2023-06-19T02:52:10.810Z,11.18
2023-06-19T02:54:38.793Z,11.32
2023-06-19T02:57:07.583Z,11.90
2023-06-19T02:59:35.607Z,11.23
2023-06-19T03:02:03.798Z,11.30
2023-06-19T03:04:33.699Z,10.77
2023-06-19T03:07:01.704Z,10.98
2023-06-19T03:09:29.601Z,10.75
2023-06-19T03:11:57.555Z,11.07
2023-06-19T03:14:25.578Z,10.85
2023-06-19T03:16:53.659Z,12.55
2023-06-19T03:19:21.825Z,12.25
2023-06-19T03:21:51.061Z,11.57
2023-06-19T03:24:19.009Z,11.57
2023-06-19T03:26:47.077Z,10.73
2023-06-19T03:29:15.060Z,11.13
2023-06-19T03:31:43.079Z,12.30
2023-06-19T03:34:11.049Z,11.15
2023-06-19T03:36:39.114Z,11.85
2023-06-19T03:39:08.475Z,10.27
2023-06-19T03:41:36.454Z,10.18
2023-06-19T03:44:04.521Z,10.00
2023-06-19T03:46:32.545Z,12.18
2023-06-19T03:49:00.561Z,10.65
2023-06-19T03:51:30.354Z,11.75
2023-06-19T03:53:58.339Z,11.45
2023-06-19T03:56:27.583Z,12.00
2023-06-19T03:58:55.550Z,11.90
2023-06-19T04:01:23.505Z,11.35
2023-06-19T04:03:51.576Z,10.95
2023-06-19T04:06:19.669Z,10.90
2023-06-19T04:08:47.749Z,11.77
2023-06-19T04:11:15.639Z,11.20
2023-06-19T04:13:45.115Z,13.65
2023-06-19T04:16:13.190Z,10.43
2023-06-19T04:18:41.165Z,12.20
2023-06-19T04:21:09.451Z,11.65
2023-06-19T04:23:37.411Z,12.90
2023-06-19T04:26:05.381Z,12.98
2023-06-19T04:28:33.349Z,10.75
2023-06-19T04:31:02.649Z,10.85
2023-06-19T04:33:31.288Z,11.50
2023-06-19T04:35:59.325Z,10.73
2023-06-19T04:38:27.243Z,11.27
2023-06-19T04:40:55.680Z,10.68
2023-06-19T04:43:25.989Z,10.98
2023-06-19T04:45:54.756Z,11.88
2023-06-19T04:48:27.277Z,11.90
2023-06-19T04:50:57.406Z,11.50
2023-06-19T04:53:25.504Z,9.95
2023-06-19T04:55:55.730Z,11.48
2023-06-19T04:58:24.367Z,10.25
2023-06-19T05:00:53.648Z,12.43
2023-06-19T05:03:23.345Z,10.75
2023-06-19T05:05:51.573Z,10.55
2023-06-19T05:08:19.405Z,10.30
2023-06-19T05:10:47.350Z,11.02
2023-06-19T05:13:15.245Z,12.13
2023-06-19T05:15:43.256Z,10.30
2023-06-19T05:18:11.331Z,10.13
2023-06-19T05:20:40.670Z,9.77
2023-06-19T05:23:08.583Z,9.00
2023-06-19T05:25:36.537Z,9.70
2023-06-19T05:28:06.177Z,9.13
2023-06-19T05:30:34.406Z,11.85
2023-06-19T05:33:02.466Z,10.82
2023-06-19T05:35:31.636Z,9.05
2023-06-19T05:38:00.944Z,12.27
2023-06-19T05:40:29.702Z,8.85
2023-06-19T05:42:57.976Z,9.82
2023-06-19T05:45:26.080Z,10.13
2023-06-19T05:47:54.163Z,8.38
2023-06-19T05:50:22.282Z,8.00
2023-06-19T05:52:50.367Z,8.88
2023-06-19T05:55:19.912Z,8.38
2023-06-19T05:57:47.941Z,7.85
2023-06-19T06:00:17.157Z,8.25
2023-06-19T06:02:45.627Z,11.05
2023-06-19T06:05:13.981Z,8.18
2023-06-19T06:07:42.063Z,7.35
2023-06-19T06:10:10.758Z,6.50
2023-06-19T06:12:40.383Z,9.80
2023-06-19T06:15:09.383Z,7.30
2023-06-19T06:17:37.419Z,6.63
2023-06-19T06:20:10.007Z,6.47
2023-06-19T06:22:38.549Z,6.25
2023-06-19T06:25:07.151Z,5.65
2023-06-19T06:27:35.315Z,5.97
2023-06-19T06:30:05.252Z,6.15
2023-06-19T06:32:33.170Z,5.85
2023-06-19T06:35:01.133Z,5.38
2023-06-19T06:37:29.200Z,3.75
2023-06-19T06:39:57.170Z,5.43
2023-06-19T06:42:25.199Z,5.07
2023-06-19T06:44:53.357Z,4.70
2023-06-19T06:47:22.859Z,5.30
2023-06-19T06:49:50.877Z,4.10
2023-06-19T06:52:18.986Z,4.43
2023-06-19T06:54:46.967Z,4.72
2023-06-19T06:57:17.898Z,5.43
2023-06-19T06:59:46.979Z,5.80
2023-06-19T07:02:15.299Z,4.97
2023-06-19T07:04:44.591Z,4.95
2023-06-19T07:07:12.528Z,5.35
2023-06-19T07:09:40.450Z,5.20
2023-06-19T07:12:09.431Z,8.43
2023-06-19T07:14:37.519Z,5.85
2023-06-19T07:17:08.562Z,6.50
2023-06-19T07:19:36.534Z,5.05
2023-06-19T07:22:06.737Z,5.25
2023-06-19T07:24:34.867Z,5.68
2023-06-19T07:27:03.001Z,5.40
2023-06-19T07:29:33.656Z,5.70
2023-06-19T07:32:03.540Z,5.80
2023-06-19T07:34:32.818Z,5.72
2023-06-19T07:37:00.821Z,6.88
2023-06-19T07:39:30.331Z,5.22
2023-06-19T07:41:58.299Z,6.38
2023-06-19T07:44:26.297Z,5.85
2023-06-19T07:46:54.225Z,6.15
2023-06-19T07:49:22.086Z,6.00
2023-06-19T07:51:50.409Z,6.47
2023-06-19T07:54:18.372Z,6.22
2023-06-19T07:56:47.938Z,6.53
2023-06-19T07:59:16.092Z,7.85
2023-06-19T08:01:44.130Z,6.47
2023-06-19T08:04:12.187Z,6.80
2023-06-19T08:06:43.277Z,7.50
2023-06-19T08:09:11.258Z,7.40
2023-06-19T08:11:39.381Z,7.82
2023-06-19T08:14:09.043Z,6.45
2023-06-19T08:16:37.252Z,7.05
2023-06-19T08:19:05.401Z,7.70
2023-06-19T08:21:33.569Z,6.07
2023-06-19T08:24:01.796Z,6.20
2023-06-19T08:26:29.917Z,6.70
2023-06-19T08:28:57.971Z,7.05
2023-06-19T08:31:28.722Z,4.20
2023-06-19T08:33:56.878Z,4.88
2023-06-19T08:36:27.416Z,5.53
2023-06-19T08:38:55.856Z,5.65
2023-06-19T08:41:26.606Z,5.70
2023-06-19T08:43:55.038Z,5.43
2023-06-19T08:46:23.116Z,6.30
2023-06-19T08:48:55.494Z,5.10
2023-06-19T08:51:23.604Z,4.97
2023-06-19T08:53:57.010Z,5.82
2023-06-19T08:56:28.028Z,4.90
2023-06-19T08:58:56.205Z,5.35
2023-06-19T09:01:28.158Z,5.65
2023-06-19T09:03:57.760Z,6.47
2023-06-19T09:06:28.105Z,5.05
2023-06-19T09:09:03.616Z,4.85
2023-06-19T09:11:31.673Z,5.28
2023-06-19T09:14:02.228Z,5.70
2023-06-19T09:16:40.111Z,5.25
2023-06-19T09:19:09.679Z,5.70
2023-06-19T09:21:39.514Z,6.32
2023-06-19T09:24:08.822Z,4.53
2023-06-19T09:26:36.972Z,5.57
2023-06-19T09:29:19.485Z,5.18
2023-06-19T09:31:49.297Z,4.40
2023-06-19T09:34:18.729Z,4.80
2023-06-19T09:36:48.140Z,4.47
2023-06-19T09:39:18.460Z,5.45
2023-06-19T09:41:48.971Z,4.22
2023-06-19T09:44:17.724Z,4.07
2023-06-19T09:46:49.090Z,3.80
2023-06-19T09:49:20.334Z,4.18
2023-06-19T09:51:48.603Z,3.80
2023-06-19T09:54:18.102Z,4.15
2023-06-19T09:56:46.632Z,4.40
2023-06-19T09:59:14.908Z,4.93
2023-06-19T10:01:44.262Z,4.22
2023-06-19T10:04:13.774Z,4.68
2023-06-19T10:06:47.223Z,3.72
2023-06-19T10:09:19.002Z,3.60
2023-06-19T10:11:49.160Z,4.45
2023-06-19T10:14:19.651Z,3.58
2023-06-19T10:16:47.882Z,4.03
2023-06-19T10:19:17.377Z,3.90
2023-06-19T10:21:51.375Z,8.98
2023-06-19T10:24:21.414Z,4.20
2023-06-19T10:27:01.408Z,5.78
2023-06-19T10:29:41.122Z,4.40
2023-06-19T10:32:10.329Z,4.22
2023-06-19T10:34:38.612Z,10.32
2023-06-19T10:37:08.100Z,4.88
2023-06-19T10:39:36.283Z,4.97
2023-06-19T10:42:08.607Z,3.97
2023-06-19T10:44:38.239Z,3.90
2023-06-19T10:47:08.622Z,5.05
2023-06-19T10:49:37.371Z,3.42
2023-06-19T10:52:07.731Z,3.35
2023-06-19T10:54:35.772Z,3.20
2023-06-19T10:57:06.736Z,3.78
2023-06-19T10:59:36.349Z,3.63
2023-06-19T11:02:04.632Z,3.92
2023-06-19T11:04:32.846Z,3.88
2023-06-19T11:07:09.662Z,3.83
2023-06-19T11:09:37.687Z,4.07
2023-06-19T11:12:09.104Z,3.08
2023-06-19T11:14:40.934Z,3.45
2023-06-19T11:17:09.074Z,3.03
2023-06-19T11:19:39.464Z,3.63
2023-06-19T11:22:09.110Z,3.80
2023-06-19T11:24:37.421Z,3.97
2023-06-19T11:27:06.529Z,4.15
2023-06-19T11:29:36.672Z,3.60
2023-06-19T11:32:08.790Z,3.25
2023-06-19T11:34:38.188Z,3.22
2023-06-19T11:37:15.765Z,17.92
2023-06-19T11:39:45.701Z,3.22
2023-06-19T11:42:13.990Z,3.17
2023-06-19T11:44:55.964Z,3.63
2023-06-19T11:47:24.455Z,3.22
2023-06-19T11:49:53.033Z,4.75
2023-06-19T11:52:22.392Z,3.50
2023-06-19T11:54:50.342Z,4.93
2023-06-19T11:57:18.407Z,3.25
2023-06-19T11:59:46.566Z,3.33
2023-06-19T12:02:14.961Z,3.63
2023-06-19T12:04:43.114Z,4.00
2023-06-19T12:07:12.661Z,3.50
2023-06-19T12:09:42.769Z,3.50
2023-06-19T12:12:11.568Z,5.63
2023-06-19T12:14:40.872Z,4.28
2023-06-19T12:17:09.754Z,3.30
2023-06-19T12:19:37.991Z,3.92
2023-06-19T12:22:06.865Z,3.30
2023-06-19T12:24:34.811Z,3.50
2023-06-19T12:27:04.250Z,4.03
2023-06-19T12:29:32.241Z,3.90
2023-06-19T12:32:03.603Z,4.20
2023-06-19T12:34:32.124Z,4.70
2023-06-19T12:37:00.161Z,4.32
2023-06-19T12:39:28.921Z,3.90
2023-06-19T12:41:56.878Z,4.45
2023-06-19T12:44:26.809Z,4.38
2023-06-19T12:46:55.068Z,4.53
2023-06-19T12:49:23.061Z,6.25
2023-06-19T12:51:53.193Z,4.10
2023-06-19T12:54:21.387Z,4.22
2023-06-19T12:56:49.454Z,3.97
2023-06-19T12:59:17.610Z,4.22
2023-06-19T13:01:47.315Z,4.63
2023-06-19T13:04:16.400Z,4.03
2023-06-19T13:06:44.463Z,4.00
2023-06-19T13:09:12.472Z,4.15
2023-06-19T13:11:40.439Z,4.07
2023-06-19T13:14:08.484Z,3.92
2023-06-19T13:19:08.745Z,4.35
2023-06-19T13:21:37.779Z,4.10
2023-06-19T13:24:06.418Z,4.05
2023-06-19T13:26:34.423Z,4.28
2023-06-19T13:29:02.494Z,4.53
2023-06-19T13:31:30.524Z,3.78
2023-06-19T13:33:59.818Z,3.92
2023-06-19T13:36:29.327Z,4.47
2023-06-19T13:38:57.448Z,4.45
2023-06-19T13:41:25.935Z,5.63
2023-06-19T13:43:55.081Z,4.38
2023-06-19T13:46:23.795Z,3.90
2023-06-19T13:48:52.747Z,3.88
2023-06-19T13:51:22.091Z,4.13
2023-06-19T13:53:52.646Z,4.47
2023-06-19T13:56:20.766Z,4.47
2023-06-19T13:58:49.134Z,3.92
2023-06-19T14:01:17.269Z,4.35
2023-06-19T14:03:45.415Z,4.93
2023-06-19T14:06:13.850Z,5.45
2023-06-19T14:08:41.836Z,6.63
2023-06-19T14:11:11.437Z,4.25
2023-06-19T14:13:39.488Z,4.95
2023-06-19T14:16:07.476Z,4.68
2023-06-19T14:18:39.100Z,6.18
2023-06-19T14:21:07.039Z,4.40
2023-06-19T14:23:40.185Z,4.90
2023-06-19T14:26:08.057Z,7.22
2023-06-19T14:28:39.485Z,4.43
2023-06-19T14:31:07.661Z,5.30
2023-06-19T14:33:36.934Z,4.10
2023-06-19T14:36:08.482Z,4.18
2023-06-19T14:38:36.464Z,4.20
2023-06-19T14:41:05.059Z,4.22
2023-06-19T14:43:34.466Z,4.63
2023-06-19T14:46:08.264Z,4.90
2023-06-19T14:48:36.329Z,5.40
2023-06-19T14:51:05.836Z,4.72
2023-06-19T14:53:34.675Z,4.60
2023-06-19T14:56:03.754Z,4.57
2023-06-19T14:58:31.804Z,4.40
2023-06-19T15:01:00.144Z,4.30
2023-06-19T15:03:29.686Z,4.80
2023-06-19T15:06:00.716Z,3.97
2023-06-19T15:08:28.740Z,6.97
2023-06-19T15:10:57.081Z,4.30
2023-06-19T15:13:25.007Z,3.95
2023-06-19T15:15:53.000Z,4.47
2023-06-19T15:18:21.043Z,3.70
2023-06-19T15:20:50.813Z,5.20
2023-06-19T15:23:20.062Z,4.07
2023-06-19T15:25:49.224Z,3.90
2023-06-19T15:28:17.210Z,3.45
2023-06-19T15:30:45.218Z,3.65
2023-06-19T15:33:13.727Z,3.20
2023-06-19T15:35:42.670Z,3.60
2023-06-19T15:38:12.040Z,3.20
2023-06-19T15:40:40.041Z,2.92
2023-06-19T15:43:08.089Z,3.25
2023-06-19T15:45:36.144Z,3.83
2023-06-19T15:48:04.456Z,4.50
2023-06-19T15:50:34.144Z,3.42
2023-06-19T15:53:02.650Z,5.00
2023-06-19T15:55:32.237Z,3.88
2023-06-19T15:58:03.031Z,3.22
2023-06-19T16:00:30.998Z,3.70
2023-06-19T16:02:59.097Z,3.55
2023-06-19T16:05:27.614Z,3.95
2023-06-19T16:07:55.669Z,3.65
2023-06-19T16:10:23.909Z,4.22
2023-06-19T16:12:53.410Z,3.55
2023-06-19T16:15:26.030Z,3.83
2023-06-19T16:17:55.131Z,3.33
2023-06-19T16:20:24.510Z,5.50
2023-06-19T16:22:52.832Z,3.05
2023-06-19T16:25:20.869Z,3.45
2023-06-19T16:27:48.898Z,3.63
2023-06-19T16:30:18.353Z,3.95
2023-06-19T16:32:46.604Z,3.20
2023-06-19T16:35:15.982Z,3.13
2023-06-19T16:37:44.013Z,3.67
2023-06-19T16:40:12.909Z,3.80
2023-06-19T16:42:40.839Z,4.18
2023-06-19T16:45:09.847Z,4.22
2023-06-19T16:47:39.118Z,3.70
2023-06-19T16:50:07.980Z,3.80
2023-06-19T16:52:36.124Z,4.45
2023-06-19T16:55:04.382Z,3.85
2023-06-19T16:57:34.022Z,6.22
2023-06-19T17:00:02.650Z,4.50
2023-06-19T17:02:30.801Z,4.78
2023-06-19T17:05:00.353Z,4.28
2023-06-19T17:07:28.407Z,3.70
2023-06-19T17:09:56.417Z,3.85
2023-06-19T17:12:24.390Z,3.60
2023-06-19T17:14:52.398Z,3.70
2023-06-19T17:17:20.616Z,3.75
2023-06-19T17:19:48.901Z,4.32
2023-06-19T17:22:20.695Z,4.30
2023-06-19T17:24:48.713Z,4.13
2023-06-19T17:27:17.022Z,4.00
2023-06-19T17:29:45.542Z,4.13
2023-06-19T17:32:13.467Z,6.20
2023-06-19T17:34:41.503Z,6.65
2023-06-19T17:37:09.572Z,5.15
2023-06-19T17:39:38.986Z,5.20
2023-06-19T17:42:09.303Z,4.75
2023-06-19T17:44:37.632Z,6.03
2023-06-19T17:47:06.592Z,7.07
2023-06-19T17:49:34.831Z,5.22
2023-06-19T17:52:02.741Z,5.03
2023-06-19T17:54:30.724Z,4.97
2023-06-19T17:57:00.621Z,5.60
2023-06-19T17:59:31.856Z,8.43
2023-06-19T18:02:00.159Z,4.35
2023-06-19T18:04:28.975Z,7.32
2023-06-19T18:06:57.354Z,8.07
2023-06-19T18:09:25.705Z,6.40
2023-06-19T18:11:53.989Z,9.80
2023-06-19T18:14:26.435Z,6.38
2023-06-19T18:16:58.775Z,9.77
2023-06-19T18:19:26.819Z,7.82
2023-06-19T18:21:54.935Z,7.18
2023-06-19T18:24:23.124Z,8.68
2023-06-19T18:26:51.384Z,7.03
2023-06-19T18:29:25.069Z,8.65
2023-06-19T18:31:53.170Z,5.50
2023-06-19T18:34:21.116Z,7.72
2023-06-19T18:36:52.596Z,9.02
2023-06-19T18:39:21.064Z,9.32
2023-06-19T18:41:49.286Z,10.40
2023-06-19T18:44:17.612Z,8.75
2023-06-19T18:46:47.041Z,16.02
2023-06-19T18:49:15.069Z,9.45
2023-06-19T18:51:43.696Z,9.50
2023-06-19T18:54:11.982Z,8.65
2023-06-19T18:56:40.636Z,8.43
2023-06-19T18:59:11.597Z,8.85
2023-06-19T19:01:39.696Z,8.50
2023-06-19T19:04:09.125Z,8.82
2023-06-19T19:06:37.668Z,10.38
2023-06-19T19:09:05.808Z,5.90
2023-06-19T19:11:34.049Z,9.45
2023-06-19T19:14:01.879Z,7.90
2023-06-19T19:16:32.499Z,7.30
2023-06-19T19:19:00.821Z,9.02
2023-06-19T19:21:30.309Z,8.23
2023-06-19T19:23:58.683Z,10.90
2023-06-19T19:26:27.094Z,10.30
2023-06-19T19:28:55.448Z,9.05
2023-06-19T19:31:23.329Z,11.00
2023-06-19T19:33:51.376Z,10.05
2023-06-19T19:36:19.424Z,12.25
2023-06-19T19:38:48.998Z,8.43
2023-06-19T19:41:17.135Z,6.40
2023-06-19T19:43:45.379Z,8.30
2023-06-19T19:46:13.445Z,13.02
2023-06-19T19:48:41.540Z,7.13
2023-06-19T19:51:09.593Z,8.88
2023-06-19T19:53:37.544Z,10.02
2023-06-19T19:56:07.297Z,8.27
2023-06-19T19:58:38.965Z,8.30
2023-06-19T20:01:07.508Z,7.43
2023-06-19T20:03:37.873Z,6.30
2023-06-19T20:06:06.383Z,6.32
2023-06-19T20:08:34.536Z,6.40
2023-06-19T20:11:02.698Z,7.32
2023-06-19T20:13:34.483Z,8.48
2023-06-19T20:16:02.623Z,7.22
2023-06-19T20:18:31.066Z,6.47
2023-06-19T20:21:02.146Z,6.75
2023-06-19T20:23:30.503Z,7.22
2023-06-19T20:25:58.604Z,6.68
2023-06-19T20:28:26.679Z,7.50
2023-06-19T20:30:56.390Z,7.15
2023-06-19T20:33:24.475Z,7.10
2023-06-19T20:35:52.506Z,10.55
2023-06-19T20:38:21.441Z,10.82
2023-06-19T20:40:49.885Z,8.63
2023-06-19T20:43:23.614Z,11.30
2023-06-19T20:45:51.494Z,10.82
2023-06-19T20:48:20.944Z,9.20
2023-06-19T20:50:48.970Z,7.88
2023-06-19T20:53:17.014Z,7.78
2023-06-19T20:55:45.357Z,8.55
2023-06-19T20:58:13.356Z,12.68
2023-06-19T21:00:41.320Z,9.20
2023-06-19T21:03:11.912Z,8.57
2023-06-19T21:05:41.818Z,9.25
2023-06-19T21:08:09.964Z,10.10
2023-06-19T21:10:37.960Z,10.88
2023-06-19T21:13:21.420Z,10.65
2023-06-19T21:15:50.900Z,9.18
2023-06-19T21:18:19.379Z,10.45
2023-06-19T21:20:54.306Z,9.23
2023-06-19T21:23:22.260Z,8.25
2023-06-19T21:25:50.775Z,9.75
2023-06-19T21:28:18.850Z,9.57
2023-06-19T21:30:47.009Z,9.43
2023-06-19T21:33:15.038Z,9.73
2023-06-19T21:35:43.109Z,8.45
2023-06-19T21:38:13.192Z,10.15
2023-06-19T21:40:41.105Z,7.65
2023-06-19T21:43:09.341Z,8.13
2023-06-19T21:45:37.525Z,10.02
2023-06-19T21:48:06.393Z,8.40
2023-06-19T21:50:34.863Z,8.68
2023-06-19T21:53:03.129Z,11.02
2023-06-19T21:55:32.785Z,8.15
2023-06-19T21:58:01.052Z,9.02
2023-06-19T22:00:29.939Z,10.25
2023-06-19T22:02:59.097Z,8.38
2023-06-19T22:05:27.558Z,7.70
2023-06-19T22:07:55.730Z,7.97
2023-06-19T22:10:24.976Z,8.93
2023-06-19T22:12:54.596Z,10.23
2023-06-19T22:15:25.921Z,8.93
2023-06-19T22:17:54.063Z,9.48
2023-06-19T22:20:22.449Z,8.02
2023-06-19T22:22:50.720Z,11.30
2023-06-19T22:25:18.959Z,10.30
2023-06-19T22:27:47.618Z,9.07
2023-06-19T22:30:17.689Z,10.23
2023-06-19T22:32:45.927Z,10.15
2023-06-19T22:35:13.985Z,9.18
2023-06-19T22:37:42.209Z,11.57
2023-06-19T22:40:11.223Z,11.32
2023-06-19T22:42:40.088Z,11.43
2023-06-19T22:45:09.232Z,8.60
2023-06-19T22:47:39.460Z,11.27
2023-06-19T22:50:08.756Z,8.68
2023-06-19T22:52:37.156Z,11.10
2023-06-19T22:55:06.469Z,10.60
2023-06-19T22:57:36.316Z,9.23
2023-06-19T23:00:09.046Z,9.70
2023-06-19T23:02:38.631Z,8.13
2023-06-19T23:05:07.399Z,10.13
2023-06-19T23:07:35.348Z,9.50
2023-06-19T23:10:05.052Z,12.63
2023-06-19T23:12:33.519Z,8.85
2023-06-19T23:15:01.910Z,10.60
2023-06-19T23:17:29.923Z,9.30
2023-06-19T23:19:59.665Z,11.07
2023-06-19T23:22:27.929Z,10.68
2023-06-19T23:24:56.195Z,13.07
2023-06-19T23:27:24.285Z,13.82
2023-06-19T23:29:52.888Z,11.15
2023-06-19T23:32:23.221Z,10.63
2023-06-19T23:34:51.358Z,11.63
2023-06-19T23:37:21.041Z,9.80
2023-06-19T23:39:49.070Z,10.35
2023-06-19T23:42:19.080Z,9.25
2023-06-19T23:44:47.058Z,10.48
2023-06-19T23:47:14.976Z,11.88
2023-06-19T23:49:44.300Z,8.52
2023-06-19T23:52:12.528Z,8.88
2023-06-19T23:54:41.940Z,9.13
2023-06-19T23:57:10.060Z,9.27
2023-06-19T23:59:38.201Z,9.00
